PWSweather.com
Personal Weather Stations
Station Observations
KAZTUCSO57
Countryside Manor, Tucson, AZ 85742

Countryside ManorTucson, AZ 85742

Lat: 32.3692, Lon: -111.066

Elevation: 2307

Station Type: Davis VP Pro+ 6163

http://frogville.us

Latest ConditionsUpdated 6:30:01 AM MST Saturday, Dec 3, 2016
Currently Today's Max Today's Min Today's Average
Temperature 36.4°F2.4°C 48.2°F9.0°C 36.4°F2.4°C 41.5°F5.3°C
Dew Point 25.8°F-3.4°C 26.2°F-3.2°C 24.0°F-4.4°C 25.5°F-3.6°C
Winds Calm Calm 1.2 mph NE1.9 kmh NE - 0.2 mph 0.3 kmh
Wind Gusts -- 3.5 mph5.6 kmh - -
Humidity 65% 65% 39% 53%
Pressure 29.89 in1012.2 mb 29.90 in1012.5 mb 29.86 in1011.2 mb -
Hour Temp Dew Point Humidity Winds Wind Gusts Pressure Precip Precip Rate Daily Precip Total
06:30 AM 36.4°F2.4°C 25.8°F-3.4°C 65% Calm Calm -- 29.89 in1012.2 mb - 0.00 in0.0 mm 0.00 in0.0 mm
06:20 AM 36.5°F2.5°C 25.9°F-3.4°C 65% Calm Calm 1.2 mph1.9 kmh 29.89 in1012.2 mb - 0.00 in0.0 mm 0.00 in0.0 mm
06:10 AM 36.7°F2.6°C 26.0°F-3.3°C 65% Calm Calm 1.2 mph1.9 kmh 29.89 in1012.2 mb - 0.00 in0.0 mm 0.00 in0.0 mm
06:00 AM 36.8°F2.7°C 25.8°F-3.4°C 64% Calm Calm 1.2 mph1.9 kmh 29.88 in1011.9 mb - 0.00 in0.0 mm 0.00 in0.0 mm
05:50 AM 37.2°F2.9°C 26.1°F-3.3°C 64% 1.2 mph NNE1.9 kmh NNE 1.2 mph1.9 kmh 29.88 in1011.9 mb - 0.00 in0.0 mm 0.00 in0.0 mm
05:40 AM 37.4°F3.0°C 25.9°F-3.4°C 63% Calm Calm -- 29.87 in1011.5 mb - 0.00 in0.0 mm 0.00 in0.0 mm
05:30 AM 37.5°F3.1°C 25.7°F-3.5°C 62% Calm Calm -- 29.87 in1011.5 mb - 0.00 in0.0 mm 0.00 in0.0 mm
05:20 AM 37.6°F3.1°C 25.7°F-3.5°C 62% Calm Calm 1.2 mph1.9 kmh 29.87 in1011.5 mb - 0.00 in0.0 mm 0.00 in0.0 mm
05:10 AM 37.8°F3.2°C 25.6°F-3.6°C 61% Calm Calm 2.3 mph3.7 kmh 29.86 in1011.2 mb - 0.00 in0.0 mm 0.00 in0.0 mm
05:00 AM 38.3°F3.5°C 26.0°F-3.3°C 61% Calm Calm 1.2 mph1.9 kmh 29.87 in1011.5 mb - 0.00 in0.0 mm 0.00 in0.0 mm
04:50 AM 38.4°F3.6°C 26.1°F-3.3°C 61% Calm Calm -- 29.86 in1011.2 mb - 0.00 in0.0 mm 0.00 in0.0 mm
04:40 AM 38.5°F3.6°C 26.2°F-3.2°C 61% 1.2 mph NNE1.9 kmh NNE 3.5 mph5.6 kmh 29.86 in1011.2 mb - 0.00 in0.0 mm 0.00 in0.0 mm
04:30 AM 38.5°F3.6°C 25.8°F-3.4°C 60% Calm Calm -- 29.87 in1011.5 mb - 0.00 in0.0 mm 0.00 in0.0 mm
04:20 AM 38.7°F3.7°C 26.0°F-3.3°C 60% Calm Calm 1.2 mph1.9 kmh 29.87 in1011.5 mb - 0.00 in0.0 mm 0.00 in0.0 mm
04:10 AM 39.1°F3.9°C 26.0°F-3.3°C 59% Calm Calm 1.2 mph1.9 kmh 29.87 in1011.5 mb - 0.00 in0.0 mm 0.00 in0.0 mm
04:00 AM 39.5°F4.2°C 26.0°F-3.3°C 58% Calm Calm -- 29.86 in1011.2 mb - 0.00 in0.0 mm 0.00 in0.0 mm
03:50 AM 39.8°F4.3°C 25.8°F-3.4°C 57% Calm Calm 1.2 mph1.9 kmh 29.86 in1011.2 mb - 0.00 in0.0 mm 0.00 in0.0 mm
03:40 AM 40.2°F4.6°C 25.7°F-3.5°C 56% 1.2 mph NNE1.9 kmh NNE 2.3 mph3.7 kmh 29.87 in1011.5 mb - 0.00 in0.0 mm 0.00 in0.0 mm
03:30 AM 40.5°F4.7°C 26.0°F-3.3°C 56% 1.2 mph NE1.9 kmh NE 2.3 mph3.7 kmh 29.87 in1011.5 mb - 0.00 in0.0 mm 0.00 in0.0 mm
03:20 AM 40.6°F4.8°C 25.7°F-3.5°C 55% Calm Calm -- 29.87 in1011.5 mb - 0.00 in0.0 mm 0.00 in0.0 mm
03:10 AM 40.9°F4.9°C 25.5°F-3.6°C 54% Calm Calm -- 29.88 in1011.9 mb - 0.00 in0.0 mm 0.00 in0.0 mm
03:00 AM 41.2°F5.1°C 25.8°F-3.4°C 54% Calm Calm 1.2 mph1.9 kmh 29.88 in1011.9 mb - 0.00 in0.0 mm 0.00 in0.0 mm
02:50 AM 41.8°F5.4°C 25.5°F-3.6°C 52% 1.2 mph NE1.9 kmh NE 1.2 mph1.9 kmh 29.88 in1011.9 mb - 0.00 in0.0 mm 0.00 in0.0 mm
02:40 AM 42.7°F5.9°C 25.3°F-3.7°C 50% Calm Calm 2.3 mph3.7 kmh 29.88 in1011.9 mb - 0.00 in0.0 mm 0.00 in0.0 mm
02:30 AM 43.1°F6.2°C 25.7°F-3.5°C 50% Calm Calm -- 29.88 in1011.9 mb - 0.00 in0.0 mm 0.00 in0.0 mm
02:20 AM 43.3°F6.3°C 25.4°F-3.7°C 49% Calm Calm -- 29.88 in1011.9 mb - 0.00 in0.0 mm 0.00 in0.0 mm
02:10 AM 43.6°F6.4°C 25.7°F-3.5°C 49% 1.2 mph NE1.9 kmh NE 2.3 mph3.7 kmh 29.88 in1011.9 mb - 0.00 in0.0 mm 0.00 in0.0 mm
02:00 AM 44.0°F6.7°C 25.5°F-3.6°C 48% Calm Calm -- 29.88 in1011.9 mb - 0.00 in0.0 mm 0.00 in0.0 mm
01:50 AM 44.2°F6.8°C 25.2°F-3.8°C 47% Calm Calm 1.2 mph1.9 kmh 29.89 in1012.2 mb - 0.00 in0.0 mm 0.00 in0.0 mm
01:40 AM 44.6°F7.0°C 25.6°F-3.6°C 47% Calm Calm -- 29.89 in1012.2 mb - 0.00 in0.0 mm 0.00 in0.0 mm
01:30 AM 44.8°F7.1°C 25.8°F-3.4°C 47% Calm Calm -- 29.88 in1011.9 mb - 0.00 in0.0 mm 0.00 in0.0 mm
01:20 AM 45.1°F7.3°C 25.0°F-3.9°C 45% Calm Calm -- 29.88 in1011.9 mb - 0.00 in0.0 mm 0.00 in0.0 mm
01:10 AM 45.5°F7.5°C 25.4°F-3.7°C 45% Calm Calm -- 29.88 in1011.9 mb - 0.00 in0.0 mm 0.00 in0.0 mm
01:00 AM 45.9°F7.7°C 24.6°F-4.1°C 43% Calm Calm 2.3 mph3.7 kmh 29.89 in1012.2 mb - 0.00 in0.0 mm 0.00 in0.0 mm
12:50 AM 46.5°F8.1°C 25.2°F-3.8°C 43% Calm Calm -- 29.89 in1012.2 mb - 0.00 in0.0 mm 0.00 in0.0 mm
12:40 AM 47.0°F8.3°C 25.1°F-3.8°C 42% Calm Calm -- 29.89 in1012.2 mb - 0.00 in0.0 mm 0.00 in0.0 mm
12:30 AM 47.3°F8.5°C 24.8°F-4.0°C 41% Calm Calm 1.2 mph1.9 kmh 29.89 in1012.2 mb - 0.00 in0.0 mm 0.00 in0.0 mm
12:20 AM 47.8°F8.8°C 24.0°F-4.4°C 39% Calm Calm -- 29.89 in1012.2 mb - 0.00 in0.0 mm 0.00 in0.0 mm
12:10 AM 48.1°F8.9°C 24.3°F-4.3°C 39% Calm Calm -- 29.90 in1012.5 mb - 0.00 in0.0 mm 0.00 in0.0 mm
12:00 AM 48.2°F9.0°C 24.4°F-4.2°C 39% Calm Calm -- 29.90 in1012.5 mb - 0.00 in0.0 mm 0.00 in0.0 mm